Samsara — 9HA4388 — position and weather

sailwx.info

Track history (hours):
 
Tides and Currents Weather Stations Pressure Air Temp Water Temp Dewpoint Dewpoint Depression Visibility Wind Speed Wind Dir Waves Ship Positions

Samsara

Last reported at 2017-Dec-03 16:51 UTC. Time now 2017-Dec-12 14:07 UTC.
Position N 01°14' E 103°26'.
Warning: this ship's position is 8 days out of date.

Length 274 m; draft 9.3 m.

Type: Tanker. MMSI: 249820000.

Date/timePositionNaut miles runAvg speedWind from/ knotsBaromVisibWave heightAir tempDewpointWater temp
2017-Dec-03 16:51N 01°14' E 103°26'512.4
2017-Dec-03 16:29N 01°13' E 103°30'712.3
2017-Dec-03 15:57N 01°11' E 103°37'512.2
2017-Dec-03 15:30N 01°10' E 103°42'510.2
2017-Dec-03 15:00N 01°10' E 103°47'713.2
2017-Dec-03 14:30N 01°13' E 103°53'4 8.5
2017-Dec-03 14:00N 01°15' E 103°56'1 0.7
2017-Dec-03 12:03N 01°16' E 103°56'0 0.0
2017-Dec-03 12:00N 01°16' E 103°56'0 0.0
2017-Dec-03 08:30N 01°16' E 103°56'0 0.1
2017-Dec-03 07:33N 01°16' E 103°56'0 0.3
2017-Dec-03 07:21N 01°16' E 103°56'0 0.1
2017-Dec-03 06:51N 01°16' E 103°56'0 0.0
2017-Dec-03 06:12N 01°16' E 103°56'0 0.3
2017-Dec-03 06:00N 01°16' E 103°56'0 0.0
2017-Dec-03 05:27N 01°16' E 103°56'0 0.0
2017-Dec-03 04:57N 01°16' E 103°56'0 0.0
2017-Dec-03 03:57N 01°16' E 103°56'0 0.1
2017-Dec-03 01:39N 01°16' E 103°56'0 0.1
2017-Dec-03 01:06N 01°16' E 103°56'0 0.1
2017-Dec-03 00:57N 01°16' E 103°56'0 0.0
2017-Dec-02 22:57N 01°16' E 103°56'0 0.0
2017-Dec-02 22:24N 01°16' E 103°56'0 0.0
2017-Dec-02 21:51N 01°16' E 103°56'0 0.0
2017-Dec-02 15:45N 01°16' E 103°56'0 0.2
2017-Dec-02 15:28N 01°16' E 103°56'2 3.4
2017-Dec-02 15:00N 01°16' E 103°58'4 6.6
2017-Dec-02 14:22N 01°16' E 104°02'  
2017-Nov-27 18:10N 21°50' E 121°03'1311.0
2017-Nov-27 16:59N 22°00' E 121°11'510.9
2017-Nov-27 16:30N 22°05' E 121°14'611.3
2017-Nov-27 16:00N 22°10' E 121°17'611.6
2017-Nov-27 15:30N 22°15' E 121°20'148 9.8
2017-Nov-27 00:26N 24°35' E 122°11'4 9.2
2017-Nov-27 00:00N 24°39' E 122°12'911.3
2017-Nov-26 23:13N 24°48' E 122°14'2 7.8
2017-Nov-26 22:59N 24°50' E 122°15'3 6.9
2017-Nov-26 22:30N 24°53' E 122°16'3 6.8
2017-Nov-26 22:00N 24°56' E 122°17'  
Track history (hours):
 
Tides and Currents Weather Stations Pressure Air Temp Water Temp Dewpoint Dewpoint Depression Visibility Wind Speed Wind Dir Waves Ship Positions

Samsara

Last reported at 2017-Dec-03 16:51 UTC. Time now 2017-Dec-12 14:07 UTC.
Position N 01°14' E 103°26'.
Warning: this ship's position is 8 days out of date.

Length 274 m; draft 9.3 m.

Type: Tanker. MMSI: 249820000.

Date/timePositionNaut miles runAvg speedWind from/ knotsBaromVisibWave heightAir tempDewpointWater temp
2017-Dec-03 16:51N 01°14' E 103°26'512.4
2017-Dec-03 16:29N 01°13' E 103°30'712.3
2017-Dec-03 15:57N 01°11' E 103°37'512.2
2017-Dec-03 15:30N 01°10' E 103°42'510.2
2017-Dec-03 15:00N 01°10' E 103°47'713.2
2017-Dec-03 14:30N 01°13' E 103°53'4 8.5
2017-Dec-03 14:00N 01°15' E 103°56'1 0.7
2017-Dec-03 12:03N 01°16' E 103°56'0 0.0
2017-Dec-03 12:00N 01°16' E 103°56'0 0.0
2017-Dec-03 08:30N 01°16' E 103°56'0 0.1
2017-Dec-03 07:33N 01°16' E 103°56'0 0.3
2017-Dec-03 07:21N 01°16' E 103°56'0 0.1
2017-Dec-03 06:51N 01°16' E 103°56'0 0.0
2017-Dec-03 06:12N 01°16' E 103°56'0 0.3
2017-Dec-03 06:00N 01°16' E 103°56'0 0.0
2017-Dec-03 05:27N 01°16' E 103°56'0 0.0
2017-Dec-03 04:57N 01°16' E 103°56'0 0.0
2017-Dec-03 03:57N 01°16' E 103°56'0 0.1
2017-Dec-03 01:39N 01°16' E 103°56'0 0.1
2017-Dec-03 01:06N 01°16' E 103°56'0 0.1
2017-Dec-03 00:57N 01°16' E 103°56'0 0.0
2017-Dec-02 22:57N 01°16' E 103°56'0 0.0
2017-Dec-02 22:24N 01°16' E 103°56'0 0.0
2017-Dec-02 21:51N 01°16' E 103°56'0 0.0
2017-Dec-02 15:45N 01°16' E 103°56'0 0.2
2017-Dec-02 15:28N 01°16' E 103°56'2 3.4
2017-Dec-02 15:00N 01°16' E 103°58'4 6.6
2017-Dec-02 14:22N 01°16' E 104°02'  
2017-Nov-27 18:10N 21°50' E 121°03'1311.0
2017-Nov-27 16:59N 22°00' E 121°11'510.9
2017-Nov-27 16:30N 22°05' E 121°14'611.3
2017-Nov-27 16:00N 22°10' E 121°17'611.6
2017-Nov-27 15:30N 22°15' E 121°20'148 9.8
2017-Nov-27 00:26N 24°35' E 122°11'4 9.2
2017-Nov-27 00:00N 24°39' E 122°12'911.3
2017-Nov-26 23:13N 24°48' E 122°14'2 7.8
2017-Nov-26 22:59N 24°50' E 122°15'3 6.9
2017-Nov-26 22:30N 24°53' E 122°16'3 6.8
2017-Nov-26 22:00N 24°56' E 122°17'  

Dump ship's entire track history